Home   Weather   France   Nîmes   Past weeks
Flag for France

Past Weather in Nîmes, Gard, France — Yesterday and Last 2 Weeks

Currently: 73 °F. Clear. (Weather station: Nimes / Garons, France). See more current weather

Past Weather in Nîmes — Graph

°F

Nîmes Temperature Yesterday

Maximum temperature yesterday: 86 °F (at 12:30 pm)
Minimum temperature yesterday: 63 °F (at 1:30 am)
Average temperature yesterday: 75 °F

High & Low Weather Summary for the Past Weeks

 TemperatureHumidityPressure
High95 °F (Jul 11, 1:30 pm)94% (Jul 6, 10:30 pm)30.04 "Hg (Jul 6, 10:30 pm)
Low59 °F (Jul 4, 4:00 am)19% (Jul 13, 5:00 pm)29.83 "Hg (Jul 3, 2:30 pm)
Average75 °F59%29.94 "Hg
* Reported Jun 30 9:00 pm — Jul 15 9:30 pm, Nîmes. Weather by CustomWeather, © 2024

Note: Actual official high and low records may vary slightly from our data, if they occured in-between our weather recording intervals... More about our weather records

Nîmes Weather History for the Previous 24 Hours

Scroll right to see more
 ConditionsComfort  
Time TempWeatherWind HumidityBarometerVisibility
9:30 pm
Mon, Jul 15
73 °FPassing clouds.5 mph89%29.95 "HgN/A
9:00 pm75 °FPassing clouds.7 mph78%29.92 "HgN/A
8:30 pm77 °FPartly sunny.10 mph79%29.92 "HgN/A
8:00 pm77 °FPartly sunny.12 mph74%29.92 "HgN/A
7:30 pm81 °FMostly cloudy.10 mph70%29.92 "HgN/A
7:00 pm81 °FScattered clouds.12 mph70%29.92 "HgN/A
6:30 pm82 °FBroken clouds.10 mph66%29.92 "HgN/A
6:00 pm82 °FBroken clouds.13 mph62%29.92 "HgN/A
5:30 pm81 °FBroken clouds.13 mph66%29.92 "HgN/A
5:00 pm82 °FPartly sunny.14 mph62%29.92 "HgN/A
4:30 pm84 °FScattered clouds.13 mph58%29.92 "HgN/A
4:00 pm84 °FPartly sunny.12 mph58%29.92 "HgN/A
3:00 pm84 °FPassing clouds.13 mph58%29.92 "HgN/A
2:30 pm84 °FPartly sunny.10 mph58%29.92 "HgN/A
2:00 pm81 °FBroken clouds.13 mph66%29.92 "HgN/A
1:30 pm81 °FMostly cloudy.14 mph66%29.92 "HgN/A
1:00 pm82 °FCloudy.14 mph58%29.92 "HgN/A
12:30 pm81 °FMostly cloudy.12 mph66%29.92 "HgN/A
12:00 pm79 °FBroken clouds.14 mph70%29.92 "HgN/A
11:30 am77 °FBroken clouds.6 mph79%29.92 "HgN/A
11:00 am73 °FMore clouds than sun.6 mph83%29.92 "HgN/A
10:30 am73 °FMostly cloudy.7 mph83%29.95 "HgN/A
10:00 am70 °FCloudy.8 mph94%29.95 "HgN/A
9:30 am72 °FMostly cloudy.8 mph83%29.95 "Hg4 mi
9:00 am72 °FOvercast.6 mph83%29.95 "HgN/A
8:30 am72 °FMostly cloudy.5 mph83%29.92 "HgN/A
8:00 am70 °FOvercast.5 mph88%29.92 "HgN/A
7:30 am70 °FOvercast.5 mph88%29.92 "HgN/A
7:00 am68 °FOvercast.5 mph94%29.92 "HgN/A
6:30 am66 °FPassing clouds.3 mph94%29.92 "HgN/A
6:00 am68 °FPassing clouds.3 mph88%29.92 "HgN/A
5:30 am68 °FPassing clouds.3 mph88%29.89 "HgN/A
5:00 am70 °FClear.6 mph88%29.89 "Hg10 mi
4:30 am68 °FClear.6 mph88%29.89 "Hg10 mi
4:00 am68 °FClear.6 mph94%29.92 "Hg10 mi
3:00 am68 °FClear.5 mph94%29.92 "Hg10 mi
2:30 am68 °FClear.5 mph88%29.92 "Hg10 mi
2:00 am68 °FClear.5 mph88%29.92 "Hg10 mi
1:30 am68 °FClear.6 mph94%29.95 "Hg10 mi
1:00 am70 °FClear.6 mph88%29.95 "Hg10 mi
12:30 am68 °FClear.5 mph88%29.95 "Hg10 mi
12:00 am70 °FClear.No wind83%29.95 "Hg10 mi
11:30 pm
Sun, Jul 14
70 °FClear.2 mph88%29.95 "Hg10 mi
11:00 pm72 °FPassing clouds.3 mph83%29.95 "HgN/A
10:30 pm72 °FClear.7 mph83%29.95 "Hg10 mi
10:00 pm72 °FClear.6 mph78%29.92 "Hg10 mi
Weather by CustomWeather, © 2024

See weather overview